createdAt,value
2018-11-22T12:17:50.704Z,8.30
2018-11-22T12:20:20.654Z,8.30
2018-11-22T12:22:51.365Z,8.30
2018-11-22T12:25:22.105Z,8.30
2018-11-22T12:27:53.251Z,8.30
2018-11-22T12:30:24.018Z,8.30
2018-11-22T12:32:58.773Z,8.30
2018-11-22T12:35:33.483Z,8.40
2018-11-22T12:38:08.113Z,8.40
2018-11-22T12:40:37.683Z,8.40
2018-11-22T12:43:07.161Z,8.40
2018-11-22T12:45:36.570Z,8.40
2018-11-22T12:48:06.179Z,8.40
2018-11-22T12:50:35.696Z,8.40
2018-11-22T12:53:05.323Z,8.30
2018-11-22T12:55:34.729Z,8.30
2018-11-22T12:58:04.112Z,8.30
2018-11-22T13:00:33.545Z,8.30
2018-11-22T13:03:02.899Z,8.40
2018-11-22T13:05:32.284Z,8.40
2018-11-22T13:08:02.350Z,8.40
2018-11-22T13:10:31.857Z,8.40
2018-11-22T13:13:01.787Z,8.30
2018-11-22T13:15:31.146Z,8.30
2018-11-22T13:18:00.838Z,8.30
2018-11-22T13:20:30.297Z,8.30
2018-11-22T13:22:59.946Z,8.40
2018-11-22T13:25:29.374Z,8.40
2018-11-22T13:27:59.343Z,8.40
2018-11-22T13:30:29.561Z,8.40
2018-11-22T13:32:59.521Z,8.40
2018-11-22T13:35:28.876Z,8.50
2018-11-22T13:37:58.748Z,8.50
2018-11-22T13:40:28.427Z,8.40
2018-11-22T13:42:57.977Z,8.50
2018-11-22T13:45:28.607Z,8.50
2018-11-22T13:47:59.233Z,8.50
2018-11-22T13:50:30.258Z,8.50
2018-11-22T13:53:01.624Z,8.50
2018-11-22T13:55:31.522Z,8.50
2018-11-22T13:58:01.049Z,8.50
2018-11-22T14:00:31.918Z,8.50
2018-11-22T14:03:02.878Z,8.60
2018-11-22T14:05:32.926Z,8.50
2018-11-22T14:08:03.112Z,8.50
2018-11-22T14:10:32.664Z,8.50
2018-11-22T14:13:02.319Z,8.50
2018-11-22T14:15:32.459Z,8.50
2018-11-22T14:18:03.480Z,8.60
2018-11-22T14:20:34.571Z,8.50
2018-11-22T14:23:04.266Z,8.50
2018-11-22T14:25:33.837Z,8.50
2018-11-22T14:28:03.791Z,8.50
2018-11-22T14:30:34.998Z,8.50
2018-11-22T14:33:04.553Z,8.50
2018-11-22T14:35:34.352Z,8.50
2018-11-22T14:38:03.861Z,8.60
2018-11-22T14:40:33.457Z,8.50
2018-11-22T14:43:03.032Z,8.50
2018-11-22T14:45:32.526Z,8.50
2018-11-22T14:48:02.988Z,8.60
2018-11-22T14:50:39.041Z,8.60
2018-11-22T14:53:12.091Z,8.50
2018-11-22T14:55:41.873Z,8.50
2018-11-22T14:58:11.480Z,8.50
2018-11-22T15:00:41.119Z,8.50
2018-11-22T15:03:10.534Z,8.50
2018-11-22T15:05:40.039Z,8.50
2018-11-22T15:08:09.615Z,8.50
2018-11-22T15:10:39.074Z,8.50
2018-11-22T15:13:08.569Z,8.50
2018-11-22T15:15:38.033Z,8.50
2018-11-22T15:18:07.617Z,8.50
2018-11-22T15:20:37.062Z,8.50
2018-11-22T15:23:06.992Z,8.50
2018-11-22T15:25:36.484Z,8.40
2018-11-22T15:28:06.105Z,8.40
2018-11-22T15:30:35.493Z,8.40
2018-11-22T15:33:05.553Z,8.40
2018-11-22T15:35:35.015Z,8.40
2018-11-22T15:38:04.551Z,8.40
2018-11-22T15:40:34.011Z,8.50
2018-11-22T15:43:04.787Z,8.40
2018-11-22T15:45:35.021Z,8.40
2018-11-22T15:48:03.840Z,8.40
2018-11-22T15:50:33.265Z,8.40
2018-11-22T15:53:02.719Z,8.40
2018-11-22T15:55:32.047Z,8.40
2018-11-22T15:58:01.737Z,8.40
2018-11-22T16:00:32.594Z,8.40
2018-11-22T16:03:02.491Z,8.40
2018-11-22T16:05:32.719Z,8.40
2018-11-22T16:08:02.305Z,8.40
2018-11-22T16:10:33.517Z,8.40
2018-11-22T16:13:07.725Z,8.40
2018-11-22T16:15:48.376Z,8.50
2018-11-22T16:18:17.766Z,8.40
2018-11-22T16:20:47.277Z,8.50
2018-11-22T16:23:16.675Z,8.50
2018-11-22T16:25:46.116Z,8.50
2018-11-22T16:28:15.802Z,8.50
2018-11-22T16:30:45.186Z,8.50
2018-11-22T16:33:14.584Z,8.50
2018-11-22T16:35:44.922Z,8.50
2018-11-22T16:38:14.290Z,8.50
2018-11-22T16:40:43.825Z,8.50
2018-11-22T16:43:13.191Z,8.50
2018-11-22T16:45:42.564Z,8.60
2018-11-22T16:48:13.502Z,8.60
2018-11-22T16:50:43.619Z,8.60
2018-11-22T16:53:13.183Z,8.60
2018-11-22T16:55:42.563Z,8.60
2018-11-22T16:58:11.926Z,8.60
2018-11-22T17:00:41.542Z,8.60
2018-11-22T17:03:13.355Z,8.60
2018-11-22T17:05:43.373Z,8.60
2018-11-22T17:08:12.819Z,8.60
2018-11-22T17:10:42.788Z,8.60
2018-11-22T17:13:12.240Z,8.60
2018-11-22T17:15:42.516Z,8.60
2018-11-22T17:18:12.349Z,8.60
2018-11-22T17:20:41.727Z,8.60
2018-11-22T17:23:11.385Z,8.60
2018-11-22T17:25:41.042Z,8.60
2018-11-22T17:28:10.764Z,8.60
2018-11-22T17:30:43.757Z,8.70
2018-11-22T17:33:13.212Z,8.70
2018-11-22T17:35:43.345Z,8.70
2018-11-22T17:38:13.632Z,8.70
2018-11-22T17:40:44.862Z,8.70
2018-11-22T17:43:15.492Z,8.70
2018-11-22T17:45:46.521Z,8.70
2018-11-22T17:48:17.212Z,8.70
2018-11-22T17:50:47.887Z,8.70
2018-11-22T17:53:17.613Z,8.70
2018-11-22T17:55:47.020Z,8.70
2018-11-22T17:58:17.319Z,8.70
2018-11-22T18:00:48.768Z,8.70
2018-11-22T18:03:18.369Z,8.70
2018-11-22T18:05:48.453Z,8.70
2018-11-22T18:08:18.103Z,8.80
2018-11-22T18:10:48.245Z,8.80
2018-11-22T18:13:17.913Z,8.80
2018-11-22T18:15:53.594Z,8.80
2018-11-22T18:18:23.102Z,8.80
2018-11-22T18:20:52.721Z,8.80
2018-11-22T18:23:22.300Z,8.70
2018-11-22T18:25:51.804Z,8.80
2018-11-22T18:28:21.152Z,8.70
2018-11-22T18:30:50.639Z,8.70
2018-11-22T18:33:20.055Z,8.70
2018-11-22T18:35:49.513Z,8.70
2018-11-22T18:38:19.006Z,8.70
2018-11-22T18:40:48.924Z,8.70
2018-11-22T18:43:19.258Z,8.70
2018-11-22T18:45:49.219Z,8.70
2018-11-22T18:48:19.738Z,8.70
2018-11-22T18:50:49.330Z,8.70
2018-11-22T18:53:18.738Z,8.70
2018-11-22T18:55:48.250Z,8.70
2018-11-22T18:58:17.749Z,8.70
2018-11-22T19:00:47.671Z,8.70
2018-11-22T19:03:19.332Z,8.70
2018-11-22T19:05:49.395Z,8.70
2018-11-22T19:08:18.884Z,8.70
2018-11-22T19:10:48.398Z,8.70
2018-11-22T19:13:17.982Z,8.80
2018-11-22T19:15:49.488Z,8.80
2018-11-22T19:18:19.357Z,8.80
2018-11-22T19:20:48.940Z,8.80
2018-11-22T19:23:18.669Z,8.80
2018-11-22T19:25:48.168Z,8.80
2018-11-22T19:28:17.664Z,8.80
2018-11-22T19:30:48.617Z,8.80
2018-11-22T19:33:19.300Z,8.80
2018-11-22T19:35:50.736Z,8.80
2018-11-22T19:38:20.228Z,8.80
2018-11-22T19:40:49.938Z,8.80
2018-11-22T19:43:20.203Z,8.80
2018-11-22T19:45:50.291Z,8.80
2018-11-22T19:48:19.812Z,8.80
2018-11-22T19:50:50.171Z,8.80
2018-11-22T19:53:19.595Z,8.80
2018-11-22T19:55:49.626Z,8.80
2018-11-22T19:58:19.437Z,8.80
2018-11-22T20:00:48.882Z,8.80
2018-11-22T20:03:19.089Z,8.80
2018-11-22T20:05:48.462Z,8.80
2018-11-22T20:08:19.201Z,8.80
2018-11-22T20:10:48.997Z,8.70
2018-11-22T20:13:18.316Z,8.70
2018-11-22T20:15:47.923Z,8.70
2018-11-22T20:18:17.345Z,8.70
2018-11-22T20:20:49.897Z,8.70
2018-11-22T20:23:21.574Z,8.70
2018-11-22T20:25:45.597Z,8.70
2018-11-22T20:28:15.010Z,8.70
2018-11-22T20:30:45.623Z,8.70
2018-11-22T20:33:15.193Z,8.70
2018-11-22T20:35:44.771Z,8.70
2018-11-22T20:38:14.125Z,8.70
2018-11-22T20:40:43.457Z,8.70
2018-11-22T20:43:12.808Z,8.70
2018-11-22T20:45:42.253Z,8.70
2018-11-22T20:48:11.757Z,8.70
2018-11-22T20:50:41.113Z,8.70
2018-11-22T20:53:10.439Z,8.70
2018-11-22T20:55:40.629Z,8.70
2018-11-22T20:58:10.163Z,8.70
2018-11-22T21:00:40.991Z,8.70
2018-11-22T21:03:10.452Z,8.70
2018-11-22T21:05:39.890Z,8.70
2018-11-22T21:08:09.312Z,8.70
2018-11-22T21:10:38.969Z,8.70
2018-11-22T21:13:08.554Z,8.70
2018-11-22T21:15:38.065Z,8.60
2018-11-22T21:18:08.800Z,8.70
2018-11-22T21:20:40.200Z,8.60
2018-11-22T21:23:09.857Z,8.60
2018-11-22T21:25:39.270Z,8.60
2018-11-22T21:28:08.753Z,8.70
2018-11-22T21:30:39.413Z,8.70
2018-11-22T21:33:09.517Z,8.70
2018-11-22T21:35:38.932Z,8.70
2018-11-22T21:38:08.963Z,8.70
2018-11-22T21:40:38.475Z,8.70
2018-11-22T21:43:07.973Z,8.70
2018-11-22T21:45:37.744Z,8.70
2018-11-22T21:48:07.196Z,8.70
2018-11-22T21:50:36.668Z,8.70
2018-11-22T21:53:06.120Z,8.80
2018-11-22T21:55:35.659Z,8.80
2018-11-22T21:58:05.364Z,8.80
2018-11-22T22:00:38.398Z,8.80
2018-11-22T22:03:09.491Z,8.80
2018-11-22T22:05:39.621Z,8.80
2018-11-22T22:08:09.356Z,8.80
2018-11-22T22:10:38.804Z,8.80
2018-11-22T22:13:08.231Z,8.90
2018-11-22T22:15:38.137Z,8.90
2018-11-22T22:18:09.096Z,8.90
2018-11-22T22:20:38.876Z,8.90
2018-11-22T22:23:13.316Z,8.90
2018-11-22T22:25:38.321Z,8.90
2018-11-22T22:28:07.735Z,8.90
2018-11-22T22:30:37.583Z,8.90
2018-11-22T22:33:07.520Z,8.90
2018-11-22T22:35:37.446Z,8.90
2018-11-22T22:38:07.013Z,8.90
2018-11-22T22:40:36.502Z,8.90
2018-11-22T22:43:06.090Z,8.90
2018-11-22T22:45:35.521Z,8.90
2018-11-22T22:48:05.508Z,8.90
2018-11-22T22:50:35.149Z,8.90
2018-11-22T22:53:04.666Z,8.90
2018-11-22T22:55:34.169Z,8.90
2018-11-22T22:58:03.687Z,8.90
2018-11-22T23:00:36.624Z,8.90
2018-11-22T23:03:08.043Z,8.90
2018-11-22T23:05:37.935Z,8.90
2018-11-22T23:08:07.629Z,8.90
2018-11-22T23:10:37.208Z,9.00
2018-11-22T23:13:07.484Z,9.00
2018-11-22T23:15:37.950Z,9.00
2018-11-22T23:18:07.409Z,9.00
2018-11-22T23:20:37.905Z,9.00
2018-11-22T23:23:07.387Z,9.00
2018-11-22T23:25:37.790Z,9.00
2018-11-22T23:28:07.241Z,9.00
2018-11-22T23:30:36.891Z,9.00
2018-11-22T23:33:07.747Z,9.00
2018-11-22T23:35:37.174Z,9.00
2018-11-22T23:38:06.856Z,9.10
2018-11-22T23:40:36.582Z,9.10
2018-11-22T23:43:06.334Z,9.10
2018-11-22T23:45:35.795Z,9.10
2018-11-22T23:48:05.275Z,9.10
2018-11-22T23:50:34.821Z,9.10
2018-11-22T23:53:05.472Z,9.10
2018-11-22T23:55:34.917Z,9.10
2018-11-22T23:58:04.829Z,9.10
